sensor_id;sensor_type;location;lat;lon;timestamp;P1;durP1;ratioP1;P2;durP2;ratioP2
11522;SDS011;70090;43.208;27.904;2024-02-21T00:01:51;26.23;;;23.17;;
11522;SDS011;70090;43.208;27.904;2024-02-21T00:04:18;29.30;;;23.40;;
11522;SDS011;70090;43.208;27.904;2024-02-21T00:06:45;33.43;;;26.47;;
11522;SDS011;70090;43.208;27.904;2024-02-21T00:09:12;35.00;;;28.50;;
11522;SDS011;70090;43.208;27.904;2024-02-21T00:11:39;33.47;;;27.33;;
11522;SDS011;70090;43.208;27.904;2024-02-21T00:14:07;32.63;;;26.13;;
11522;SDS011;70090;43.208;27.904;2024-02-21T00:16:34;33.93;;;24.77;;
11522;SDS011;70090;43.208;27.904;2024-02-21T00:19:01;31.97;;;25.50;;
11522;SDS011;70090;43.208;27.904;2024-02-21T00:21:29;34.70;;;23.67;;
11522;SDS011;70090;43.208;27.904;2024-02-21T00:23:56;30.73;;;21.43;;
11522;SDS011;70090;43.208;27.904;2024-02-21T00:26:23;28.60;;;20.57;;
11522;SDS011;70090;43.208;27.904;2024-02-21T00:28:51;34.73;;;22.93;;
11522;SDS011;70090;43.208;27.904;2024-02-21T00:31:19;26.03;;;20.17;;
11522;SDS011;70090;43.208;27.904;2024-02-21T00:33:46;33.73;;;19.93;;
11522;SDS011;70090;43.208;27.904;2024-02-21T00:36:13;28.60;;;20.33;;
11522;SDS011;70090;43.208;27.904;2024-02-21T00:38:41;27.00;;;19.93;;
11522;SDS011;70090;43.208;27.904;2024-02-21T00:41:08;25.47;;;20.00;;
11522;SDS011;70090;43.208;27.904;2024-02-21T00:43:35;28.33;;;19.30;;
11522;SDS011;70090;43.208;27.904;2024-02-21T00:46:02;25.23;;;19.37;;
11522;SDS011;70090;43.208;27.904;2024-02-21T00:48:30;25.37;;;17.57;;
11522;SDS011;70090;43.208;27.904;2024-02-21T00:50:58;24.77;;;18.60;;
11522;SDS011;70090;43.208;27.904;2024-02-21T00:53:25;22.97;;;17.80;;
11522;SDS011;70090;43.208;27.904;2024-02-21T00:55:52;23.60;;;18.80;;
11522;SDS011;70090;43.208;27.904;2024-02-21T00:58:19;30.60;;;20.90;;
11522;SDS011;70090;43.208;27.904;2024-02-21T01:00:46;27.37;;;20.67;;
11522;SDS011;70090;43.208;27.904;2024-02-21T01:03:13;28.07;;;21.33;;
11522;SDS011;70090;43.208;27.904;2024-02-21T01:05:41;31.47;;;22.70;;
11522;SDS011;70090;43.208;27.904;2024-02-21T01:08:08;33.23;;;23.37;;
11522;SDS011;70090;43.208;27.904;2024-02-21T01:10:35;37.33;;;23.97;;
11522;SDS011;70090;43.208;27.904;2024-02-21T01:13:03;38.07;;;25.10;;
11522;SDS011;70090;43.208;27.904;2024-02-21T01:15:30;38.10;;;25.73;;
11522;SDS011;70090;43.208;27.904;2024-02-21T01:17:57;40.23;;;25.57;;
11522;SDS011;70090;43.208;27.904;2024-02-21T01:20:24;38.53;;;25.23;;
11522;SDS011;70090;43.208;27.904;2024-02-21T01:22:52;36.57;;;25.93;;
11522;SDS011;70090;43.208;27.904;2024-02-21T01:25:19;39.33;;;25.40;;
11522;SDS011;70090;43.208;27.904;2024-02-21T01:27:46;34.93;;;24.53;;
11522;SDS011;70090;43.208;27.904;2024-02-21T01:30:13;34.27;;;23.77;;
11522;SDS011;70090;43.208;27.904;2024-02-21T01:32:41;31.63;;;22.90;;
11522;SDS011;70090;43.208;27.904;2024-02-21T01:35:08;35.60;;;24.00;;
11522;SDS011;70090;43.208;27.904;2024-02-21T01:37:35;32.70;;;24.07;;
11522;SDS011;70090;43.208;27.904;2024-02-21T01:40:04;35.03;;;23.57;;
11522;SDS011;70090;43.208;27.904;2024-02-21T01:42:31;36.00;;;24.30;;
11522;SDS011;70090;43.208;27.904;2024-02-21T01:44:58;35.40;;;22.53;;
11522;SDS011;70090;43.208;27.904;2024-02-21T01:47:26;35.23;;;23.30;;
11522;SDS011;70090;43.208;27.904;2024-02-21T01:49:53;33.93;;;23.63;;
11522;SDS011;70090;43.208;27.904;2024-02-21T01:52:21;34.30;;;23.07;;
11522;SDS011;70090;43.208;27.904;2024-02-21T01:54:48;39.27;;;24.53;;
11522;SDS011;70090;43.208;27.904;2024-02-21T01:57:17;35.97;;;23.83;;
11522;SDS011;70090;43.208;27.904;2024-02-21T01:59:44;38.10;;;24.77;;
11522;SDS011;70090;43.208;27.904;2024-02-21T02:02:12;38.90;;;25.10;;
11522;SDS011;70090;43.208;27.904;2024-02-21T02:04:39;38.03;;;26.60;;
11522;SDS011;70090;43.208;27.904;2024-02-21T02:07:06;43.87;;;27.70;;
11522;SDS011;70090;43.208;27.904;2024-02-21T02:09:34;41.03;;;27.50;;
11522;SDS011;70090;43.208;27.904;2024-02-21T02:12:01;39.67;;;26.60;;
11522;SDS011;70090;43.208;27.904;2024-02-21T02:14:30;41.33;;;26.87;;
11522;SDS011;70090;43.208;27.904;2024-02-21T02:16:57;39.27;;;27.80;;
11522;SDS011;70090;43.208;27.904;2024-02-21T02:19:24;42.80;;;28.37;;
11522;SDS011;70090;43.208;27.904;2024-02-21T02:21:54;40.40;;;28.00;;
11522;SDS011;70090;43.208;27.904;2024-02-21T02:24:27;54.47;;;31.87;;
11522;SDS011;70090;43.208;27.904;2024-02-21T02:26:55;53.87;;;34.10;;
11522;SDS011;70090;43.208;27.904;2024-02-21T02:29:22;54.97;;;33.10;;
11522;SDS011;70090;43.208;27.904;2024-02-21T02:31:49;48.03;;;32.40;;
11522;SDS011;70090;43.208;27.904;2024-02-21T02:34:16;46.33;;;30.60;;
11522;SDS011;70090;43.208;27.904;2024-02-21T02:36:43;40.40;;;27.03;;
11522;SDS011;70090;43.208;27.904;2024-02-21T02:39:10;46.77;;;26.70;;
11522;SDS011;70090;43.208;27.904;2024-02-21T02:41:38;44.57;;;24.23;;
11522;SDS011;70090;43.208;27.904;2024-02-21T02:44:05;33.50;;;21.90;;
11522;SDS011;70090;43.208;27.904;2024-02-21T02:46:32;32.80;;;22.33;;
11522;SDS011;70090;43.208;27.904;2024-02-21T02:49:00;32.73;;;21.40;;
11522;SDS011;70090;43.208;27.904;2024-02-21T02:51:27;33.07;;;20.27;;
11522;SDS011;70090;43.208;27.904;2024-02-21T02:53:54;29.13;;;20.70;;
11522;SDS011;70090;43.208;27.904;2024-02-21T02:56:22;34.33;;;21.40;;
11522;SDS011;70090;43.208;27.904;2024-02-21T02:58:50;34.53;;;20.40;;
11522;SDS011;70090;43.208;27.904;2024-02-21T03:01:17;35.07;;;20.93;;
11522;SDS011;70090;43.208;27.904;2024-02-21T03:03:44;33.20;;;21.40;;
11522;SDS011;70090;43.208;27.904;2024-02-21T03:06:12;34.13;;;20.30;;
11522;SDS011;70090;43.208;27.904;2024-02-21T03:08:40;31.43;;;19.20;;
11522;SDS011;70090;43.208;27.904;2024-02-21T03:11:08;32.37;;;20.53;;
11522;SDS011;70090;43.208;27.904;2024-02-21T03:13:36;30.50;;;20.50;;
11522;SDS011;70090;43.208;27.904;2024-02-21T03:16:04;35.80;;;23.10;;
11522;SDS011;70090;43.208;27.904;2024-02-21T03:18:32;35.00;;;22.40;;
11522;SDS011;70090;43.208;27.904;2024-02-21T03:20:59;33.00;;;21.73;;
11522;SDS011;70090;43.208;27.904;2024-02-21T03:23:26;34.60;;;24.13;;
11522;SDS011;70090;43.208;27.904;2024-02-21T03:25:53;32.33;;;21.50;;
11522;SDS011;70090;43.208;27.904;2024-02-21T03:28:20;39.97;;;23.20;;
11522;SDS011;70090;43.208;27.904;2024-02-21T03:30:47;39.07;;;23.03;;
11522;SDS011;70090;43.208;27.904;2024-02-21T03:33:15;40.43;;;22.17;;
11522;SDS011;70090;43.208;27.904;2024-02-21T03:35:42;42.07;;;24.83;;
11522;SDS011;70090;43.208;27.904;2024-02-21T03:38:09;39.40;;;24.33;;
11522;SDS011;70090;43.208;27.904;2024-02-21T03:40:36;41.93;;;25.80;;
11522;SDS011;70090;43.208;27.904;2024-02-21T03:43:03;41.20;;;23.80;;
11522;SDS011;70090;43.208;27.904;2024-02-21T03:45:30;42.67;;;24.70;;
11522;SDS011;70090;43.208;27.904;2024-02-21T03:47:57;44.77;;;24.90;;
11522;SDS011;70090;43.208;27.904;2024-02-21T03:50:26;44.13;;;24.93;;
11522;SDS011;70090;43.208;27.904;2024-02-21T03:52:53;41.40;;;24.00;;
11522;SDS011;70090;43.208;27.904;2024-02-21T03:55:20;38.77;;;24.63;;
11522;SDS011;70090;43.208;27.904;2024-02-21T03:57:48;41.90;;;25.13;;
11522;SDS011;70090;43.208;27.904;2024-02-21T04:00:15;51.17;;;29.47;;
11522;SDS011;70090;43.208;27.904;2024-02-21T04:02:43;38.33;;;25.17;;
11522;SDS011;70090;43.208;27.904;2024-02-21T04:05:10;36.43;;;23.97;;
11522;SDS011;70090;43.208;27.904;2024-02-21T04:07:38;41.37;;;25.03;;
11522;SDS011;70090;43.208;27.904;2024-02-21T04:10:06;37.30;;;24.77;;
11522;SDS011;70090;43.208;27.904;2024-02-21T04:12:33;40.57;;;25.57;;
11522;SDS011;70090;43.208;27.904;2024-02-21T04:15:00;36.93;;;24.20;;
11522;SDS011;70090;43.208;27.904;2024-02-21T04:17:27;34.90;;;23.10;;
11522;SDS011;70090;43.208;27.904;2024-02-21T04:20:02;38.67;;;23.37;;
11522;SDS011;70090;43.208;27.904;2024-02-21T04:22:30;39.47;;;23.87;;
11522;SDS011;70090;43.208;27.904;2024-02-21T04:25:00;36.07;;;23.67;;
11522;SDS011;70090;43.208;27.904;2024-02-21T04:27:27;34.13;;;23.00;;
11522;SDS011;70090;43.208;27.904;2024-02-21T04:29:54;38.20;;;22.87;;
11522;SDS011;70090;43.208;27.904;2024-02-21T04:32:22;39.13;;;26.47;;
11522;SDS011;70090;43.208;27.904;2024-02-21T04:34:49;45.47;;;25.30;;
11522;SDS011;70090;43.208;27.904;2024-02-21T04:37:16;48.70;;;32.13;;
11522;SDS011;70090;43.208;27.904;2024-02-21T04:39:43;59.60;;;33.93;;
11522;SDS011;70090;43.208;27.904;2024-02-21T04:42:13;48.47;;;34.17;;
11522;SDS011;70090;43.208;27.904;2024-02-21T04:44:40;56.13;;;36.30;;
11522;SDS011;70090;43.208;27.904;2024-02-21T04:47:07;57.50;;;35.53;;
11522;SDS011;70090;43.208;27.904;2024-02-21T04:49:34;54.27;;;36.47;;
11522;SDS011;70090;43.208;27.904;2024-02-21T04:52:01;54.63;;;36.37;;
11522;SDS011;70090;43.208;27.904;2024-02-21T04:54:28;45.87;;;33.60;;
11522;SDS011;70090;43.208;27.904;2024-02-21T04:56:55;47.00;;;31.07;;
11522;SDS011;70090;43.208;27.904;2024-02-21T04:59:24;47.30;;;32.40;;
11522;SDS011;70090;43.208;27.904;2024-02-21T05:01:51;46.97;;;32.20;;
11522;SDS011;70090;43.208;27.904;2024-02-21T05:04:18;46.93;;;33.40;;
11522;SDS011;70090;43.208;27.904;2024-02-21T05:06:45;44.00;;;31.47;;
11522;SDS011;70090;43.208;27.904;2024-02-21T05:09:12;50.13;;;35.13;;
11522;SDS011;70090;43.208;27.904;2024-02-21T05:11:39;48.20;;;35.50;;
11522;SDS011;70090;43.208;27.904;2024-02-21T05:14:06;48.40;;;33.57;;
11522;SDS011;70090;43.208;27.904;2024-02-21T05:16:34;43.50;;;30.60;;
11522;SDS011;70090;43.208;27.904;2024-02-21T05:19:02;49.60;;;36.30;;
11522;SDS011;70090;43.208;27.904;2024-02-21T05:21:29;54.47;;;40.33;;
11522;SDS011;70090;43.208;27.904;2024-02-21T05:23:56;58.60;;;45.30;;
11522;SDS011;70090;43.208;27.904;2024-02-21T05:26:23;65.07;;;48.43;;
11522;SDS011;70090;43.208;27.904;2024-02-21T05:28:51;66.53;;;47.30;;
11522;SDS011;70090;43.208;27.904;2024-02-21T05:31:18;70.67;;;50.73;;
11522;SDS011;70090;43.208;27.904;2024-02-21T05:33:47;75.73;;;53.80;;
11522;SDS011;70090;43.208;27.904;2024-02-21T05:36:14;86.23;;;61.70;;
11522;SDS011;70090;43.208;27.904;2024-02-21T05:38:41;99.47;;;66.90;;
11522;SDS011;70090;43.208;27.904;2024-02-21T05:41:08;98.87;;;70.20;;
11522;SDS011;70090;43.208;27.904;2024-02-21T05:43:35;106.23;;;75.47;;
11522;SDS011;70090;43.208;27.904;2024-02-21T05:46:02;97.93;;;71.37;;
11522;SDS011;70090;43.208;27.904;2024-02-21T05:48:29;87.60;;;65.73;;
11522;SDS011;70090;43.208;27.904;2024-02-21T05:50:58;101.37;;;70.37;;
11522;SDS011;70090;43.208;27.904;2024-02-21T05:53:27;119.57;;;86.90;;
11522;SDS011;70090;43.208;27.904;2024-02-21T05:55:54;106.27;;;76.27;;
11522;SDS011;70090;43.208;27.904;2024-02-21T05:58:21;96.40;;;68.73;;
11522;SDS011;70090;43.208;27.904;2024-02-21T06:00:48;72.73;;;53.83;;
11522;SDS011;70090;43.208;27.904;2024-02-21T06:03:15;75.20;;;55.73;;
11522;SDS011;70090;43.208;27.904;2024-02-21T06:05:44;74.43;;;55.03;;
11522;SDS011;70090;43.208;27.904;2024-02-21T06:08:12;89.47;;;61.80;;
11522;SDS011;70090;43.208;27.904;2024-02-21T06:10:39;92.60;;;61.80;;
11522;SDS011;70090;43.208;27.904;2024-02-21T06:13:06;76.57;;;48.90;;
11522;SDS011;70090;43.208;27.904;2024-02-21T06:15:35;107.73;;;71.73;;
11522;SDS011;70090;43.208;27.904;2024-02-21T06:18:02;94.40;;;64.67;;
11522;SDS011;70090;43.208;27.904;2024-02-21T06:20:29;62.50;;;41.57;;
11522;SDS011;70090;43.208;27.904;2024-02-21T06:22:56;92.27;;;56.70;;
11522;SDS011;70090;43.208;27.904;2024-02-21T06:25:25;76.27;;;51.50;;
11522;SDS011;70090;43.208;27.904;2024-02-21T06:27:52;71.03;;;49.13;;
11522;SDS011;70090;43.208;27.904;2024-02-21T06:30:19;75.93;;;49.07;;
11522;SDS011;70090;43.208;27.904;2024-02-21T06:32:46;76.80;;;52.27;;
11522;SDS011;70090;43.208;27.904;2024-02-21T06:35:13;71.33;;;50.63;;
11522;SDS011;70090;43.208;27.904;2024-02-21T06:37:40;72.30;;;49.07;;
11522;SDS011;70090;43.208;27.904;2024-02-21T06:40:07;74.80;;;50.87;;
11522;SDS011;70090;43.208;27.904;2024-02-21T06:42:36;71.00;;;51.10;;
11522;SDS011;70090;43.208;27.904;2024-02-21T06:45:03;76.43;;;53.60;;
11522;SDS011;70090;43.208;27.904;2024-02-21T06:47:31;75.70;;;52.70;;
11522;SDS011;70090;43.208;27.904;2024-02-21T06:49:58;70.10;;;46.90;;
11522;SDS011;70090;43.208;27.904;2024-02-21T06:52:25;62.00;;;45.83;;
11522;SDS011;70090;43.208;27.904;2024-02-21T06:54:52;73.80;;;51.50;;
11522;SDS011;70090;43.208;27.904;2024-02-21T06:57:19;79.47;;;60.50;;
11522;SDS011;70090;43.208;27.904;2024-02-21T06:59:47;79.77;;;56.90;;
11522;SDS011;70090;43.208;27.904;2024-02-21T07:02:15;106.33;;;72.73;;
11522;SDS011;70090;43.208;27.904;2024-02-21T07:04:42;77.40;;;57.70;;
11522;SDS011;70090;43.208;27.904;2024-02-21T07:07:10;70.60;;;49.93;;
11522;SDS011;70090;43.208;27.904;2024-02-21T07:09:37;52.97;;;42.90;;
11522;SDS011;70090;43.208;27.904;2024-02-21T07:12:05;60.20;;;41.93;;
11522;SDS011;70090;43.208;27.904;2024-02-21T07:14:32;48.13;;;36.77;;
11522;SDS011;70090;43.208;27.904;2024-02-21T07:17:01;50.20;;;37.13;;
11522;SDS011;70090;43.208;27.904;2024-02-21T07:19:28;59.13;;;38.23;;
11522;SDS011;70090;43.208;27.904;2024-02-21T07:21:55;66.33;;;48.43;;
11522;SDS011;70090;43.208;27.904;2024-02-21T07:24:23;64.23;;;47.00;;
11522;SDS011;70090;43.208;27.904;2024-02-21T07:26:50;76.50;;;53.03;;
11522;SDS011;70090;43.208;27.904;2024-02-21T07:29:17;73.80;;;53.00;;
11522;SDS011;70090;43.208;27.904;2024-02-21T07:31:44;77.80;;;54.83;;
11522;SDS011;70090;43.208;27.904;2024-02-21T07:34:15;84.47;;;57.27;;
11522;SDS011;70090;43.208;27.904;2024-02-21T07:36:42;83.53;;;57.43;;
11522;SDS011;70090;43.208;27.904;2024-02-21T07:39:09;83.03;;;56.37;;
11522;SDS011;70090;43.208;27.904;2024-02-21T07:41:37;86.90;;;58.77;;
11522;SDS011;70090;43.208;27.904;2024-02-21T07:44:05;83.73;;;57.77;;
11522;SDS011;70090;43.208;27.904;2024-02-21T07:46:32;83.40;;;58.67;;
11522;SDS011;70090;43.208;27.904;2024-02-21T07:49:00;89.60;;;60.93;;
11522;SDS011;70090;43.208;27.904;2024-02-21T07:51:29;86.00;;;58.67;;
11522;SDS011;70090;43.208;27.904;2024-02-21T07:53:56;86.00;;;58.23;;
11522;SDS011;70090;43.208;27.904;2024-02-21T07:56:23;80.93;;;58.40;;
11522;SDS011;70090;43.208;27.904;2024-02-21T07:58:50;87.20;;;60.47;;
11522;SDS011;70090;43.208;27.904;2024-02-21T08:01:18;87.37;;;58.57;;
11522;SDS011;70090;43.208;27.904;2024-02-21T08:03:45;90.93;;;58.83;;
11522;SDS011;70090;43.208;27.904;2024-02-21T08:06:13;81.53;;;58.33;;
11522;SDS011;70090;43.208;27.904;2024-02-21T08:08:41;89.10;;;59.00;;
11522;SDS011;70090;43.208;27.904;2024-02-21T08:11:08;90.30;;;60.17;;
11522;SDS011;70090;43.208;27.904;2024-02-21T08:13:35;79.37;;;55.93;;
11522;SDS011;70090;43.208;27.904;2024-02-21T08:16:02;84.80;;;58.53;;
11522;SDS011;70090;43.208;27.904;2024-02-21T08:18:30;90.27;;;59.97;;
11522;SDS011;70090;43.208;27.904;2024-02-21T08:20:57;81.43;;;57.07;;
11522;SDS011;70090;43.208;27.904;2024-02-21T08:23:24;78.03;;;56.33;;
11522;SDS011;70090;43.208;27.904;2024-02-21T08:25:52;66.63;;;51.70;;
11522;SDS011;70090;43.208;27.904;2024-02-21T08:28:19;68.60;;;49.43;;
11522;SDS011;70090;43.208;27.904;2024-02-21T08:30:47;66.50;;;47.43;;
11522;SDS011;70090;43.208;27.904;2024-02-21T08:33:14;66.50;;;46.93;;
11522;SDS011;70090;43.208;27.904;2024-02-21T08:35:41;60.30;;;45.60;;
11522;SDS011;70090;43.208;27.904;2024-02-21T08:38:09;53.90;;;40.60;;
11522;SDS011;70090;43.208;27.904;2024-02-21T08:40:36;43.07;;;35.77;;
11522;SDS011;70090;43.208;27.904;2024-02-21T08:43:04;42.80;;;33.30;;
11522;SDS011;70090;43.208;27.904;2024-02-21T08:45:31;51.47;;;35.00;;
11522;SDS011;70090;43.208;27.904;2024-02-21T08:47:58;53.07;;;38.37;;
11522;SDS011;70090;43.208;27.904;2024-02-21T08:50:25;48.47;;;36.97;;
11522;SDS011;70090;43.208;27.904;2024-02-21T08:52:53;55.93;;;40.07;;
11522;SDS011;70090;43.208;27.904;2024-02-21T08:55:20;54.50;;;42.17;;
11522;SDS011;70090;43.208;27.904;2024-02-21T08:57:47;57.37;;;46.63;;
11522;SDS011;70090;43.208;27.904;2024-02-21T09:00:16;77.00;;;56.17;;
11522;SDS011;70090;43.208;27.904;2024-02-21T09:02:45;70.53;;;57.80;;
11522;SDS011;70090;43.208;27.904;2024-02-21T09:05:12;71.83;;;57.10;;
11522;SDS011;70090;43.208;27.904;2024-02-21T09:07:40;84.33;;;66.30;;
11522;SDS011;70090;43.208;27.904;2024-02-21T09:10:07;70.43;;;54.60;;
11522;SDS011;70090;43.208;27.904;2024-02-21T09:12:35;62.47;;;47.83;;
11522;SDS011;70090;43.208;27.904;2024-02-21T09:15:02;55.27;;;41.83;;
11522;SDS011;70090;43.208;27.904;2024-02-21T09:17:32;43.43;;;35.70;;
11522;SDS011;70090;43.208;27.904;2024-02-21T09:19:59;39.67;;;32.33;;
11522;SDS011;70090;43.208;27.904;2024-02-21T09:22:28;43.03;;;33.07;;
11522;SDS011;70090;43.208;27.904;2024-02-21T09:24:56;50.33;;;35.03;;
11522;SDS011;70090;43.208;27.904;2024-02-21T09:27:23;42.87;;;33.50;;
11522;SDS011;70090;43.208;27.904;2024-02-21T09:29:50;43.83;;;34.40;;
11522;SDS011;70090;43.208;27.904;2024-02-21T09:32:17;33.47;;;26.20;;
11522;SDS011;70090;43.208;27.904;2024-02-21T09:34:46;39.07;;;30.87;;
11522;SDS011;70090;43.208;27.904;2024-02-21T09:37:13;39.23;;;30.67;;
11522;SDS011;70090;43.208;27.904;2024-02-21T09:39:40;37.83;;;29.13;;
11522;SDS011;70090;43.208;27.904;2024-02-21T09:42:07;40.20;;;30.77;;
11522;SDS011;70090;43.208;27.904;2024-02-21T09:44:38;29.80;;;23.90;;
11522;SDS011;70090;43.208;27.904;2024-02-21T09:47:06;32.07;;;26.37;;
11522;SDS011;70090;43.208;27.904;2024-02-21T09:49:37;28.43;;;24.10;;
11522;SDS011;70090;43.208;27.904;2024-02-21T09:52:08;25.47;;;20.00;;
11522;SDS011;70090;43.208;27.904;2024-02-21T09:54:38;26.80;;;20.13;;
11522;SDS011;70090;43.208;27.904;2024-02-21T09:57:09;23.00;;;18.73;;
11522;SDS011;70090;43.208;27.904;2024-02-21T09:59:37;30.77;;;24.33;;
11522;SDS011;70090;43.208;27.904;2024-02-21T10:02:07;29.10;;;22.40;;
11522;SDS011;70090;43.208;27.904;2024-02-21T10:04:34;25.53;;;20.40;;
11522;SDS011;70090;43.208;27.904;2024-02-21T10:07:01;27.23;;;20.93;;
11522;SDS011;70090;43.208;27.904;2024-02-21T10:09:30;30.43;;;22.57;;
11522;SDS011;70090;43.208;27.904;2024-02-21T10:12:07;28.43;;;22.90;;
11522;SDS011;70090;43.208;27.904;2024-02-21T10:14:34;27.33;;;21.03;;
11522;SDS011;70090;43.208;27.904;2024-02-21T10:17:01;25.30;;;20.03;;
11522;SDS011;70090;43.208;27.904;2024-02-21T10:19:34;27.23;;;21.13;;
11522;SDS011;70090;43.208;27.904;2024-02-21T10:22:02;31.97;;;22.17;;
11522;SDS011;70090;43.208;27.904;2024-02-21T10:24:31;33.03;;;21.73;;
11522;SDS011;70090;43.208;27.904;2024-02-21T10:26:59;25.97;;;20.63;;
11522;SDS011;70090;43.208;27.904;2024-02-21T10:29:28;27.87;;;21.87;;
11522;SDS011;70090;43.208;27.904;2024-02-21T10:32:03;27.47;;;21.47;;
11522;SDS011;70090;43.208;27.904;2024-02-21T10:34:31;28.33;;;22.10;;
11522;SDS011;70090;43.208;27.904;2024-02-21T10:37:02;29.93;;;23.13;;
11522;SDS011;70090;43.208;27.904;2024-02-21T10:39:31;50.10;;;35.80;;
11522;SDS011;70090;43.208;27.904;2024-02-21T10:41:59;34.33;;;25.93;;
11522;SDS011;70090;43.208;27.904;2024-02-21T10:44:28;39.63;;;29.57;;
11522;SDS011;70090;43.208;27.904;2024-02-21T10:46:56;36.80;;;28.57;;
11522;SDS011;70090;43.208;27.904;2024-02-21T10:49:24;33.43;;;26.47;;
11522;SDS011;70090;43.208;27.904;2024-02-21T10:51:54;35.00;;;27.77;;
11522;SDS011;70090;43.208;27.904;2024-02-21T10:54:39;37.27;;;29.10;;
11522;SDS011;70090;43.208;27.904;2024-02-21T10:57:12;41.33;;;31.23;;
11522;SDS011;70090;43.208;27.904;2024-02-21T10:59:40;39.93;;;31.30;;
11522;SDS011;70090;43.208;27.904;2024-02-21T11:02:07;36.07;;;29.30;;
11522;SDS011;70090;43.208;27.904;2024-02-21T11:04:34;36.77;;;30.03;;
11522;SDS011;70090;43.208;27.904;2024-02-21T11:07:03;38.83;;;30.47;;
11522;SDS011;70090;43.208;27.904;2024-02-21T11:09:33;35.63;;;29.13;;
11522;SDS011;70090;43.208;27.904;2024-02-21T11:12:02;40.27;;;29.23;;
11522;SDS011;70090;43.208;27.904;2024-02-21T11:14:30;35.80;;;28.00;;
11522;SDS011;70090;43.208;27.904;2024-02-21T11:17:01;40.10;;;29.40;;
11522;SDS011;70090;43.208;27.904;2024-02-21T11:19:28;37.27;;;29.17;;
11522;SDS011;70090;43.208;27.904;2024-02-21T11:21:56;40.57;;;31.13;;
11522;SDS011;70090;43.208;27.904;2024-02-21T11:24:26;36.23;;;30.77;;
11522;SDS011;70090;43.208;27.904;2024-02-21T11:26:56;39.83;;;30.83;;
11522;SDS011;70090;43.208;27.904;2024-02-21T11:29:39;40.87;;;31.80;;
11522;SDS011;70090;43.208;27.904;2024-02-21T11:32:09;41.07;;;31.77;;
11522;SDS011;70090;43.208;27.904;2024-02-21T11:34:36;38.93;;;30.37;;
11522;SDS011;70090;43.208;27.904;2024-02-21T11:37:12;39.93;;;30.83;;
11522;SDS011;70090;43.208;27.904;2024-02-21T11:39:41;35.63;;;27.80;;
11522;SDS011;70090;43.208;27.904;2024-02-21T11:42:10;34.13;;;26.67;;
11522;SDS011;70090;43.208;27.904;2024-02-21T11:44:38;36.30;;;27.27;;
11522;SDS011;70090;43.208;27.904;2024-02-21T11:47:07;37.77;;;28.07;;
11522;SDS011;70090;43.208;27.904;2024-02-21T11:49:36;34.13;;;27.17;;
11522;SDS011;70090;43.208;27.904;2024-02-21T11:52:04;33.23;;;26.43;;
11522;SDS011;70090;43.208;27.904;2024-02-21T11:54:32;33.67;;;27.30;;
11522;SDS011;70090;43.208;27.904;2024-02-21T11:57:00;33.50;;;26.20;;
11522;SDS011;70090;43.208;27.904;2024-02-21T11:59:31;34.53;;;26.03;;
11522;SDS011;70090;43.208;27.904;2024-02-21T12:01:58;31.17;;;26.10;;
11522;SDS011;70090;43.208;27.904;2024-02-21T12:04:26;30.40;;;25.07;;
11522;SDS011;70090;43.208;27.904;2024-02-21T12:06:53;33.90;;;26.33;;
11522;SDS011;70090;43.208;27.904;2024-02-21T12:09:22;33.07;;;25.97;;
11522;SDS011;70090;43.208;27.904;2024-02-21T12:11:56;35.10;;;26.80;;
11522;SDS011;70090;43.208;27.904;2024-02-21T12:14:25;31.77;;;26.10;;
11522;SDS011;70090;43.208;27.904;2024-02-21T12:16:54;33.90;;;26.07;;
11522;SDS011;70090;43.208;27.904;2024-02-21T12:19:21;33.13;;;26.47;;
11522;SDS011;70090;43.208;27.904;2024-02-21T12:21:48;32.67;;;26.93;;
11522;SDS011;70090;43.208;27.904;2024-02-21T12:24:17;38.70;;;28.40;;
11522;SDS011;70090;43.208;27.904;2024-02-21T12:26:48;34.73;;;27.87;;
11522;SDS011;70090;43.208;27.904;2024-02-21T12:29:15;35.37;;;28.00;;
11522;SDS011;70090;43.208;27.904;2024-02-21T12:31:42;33.63;;;26.87;;
11522;SDS011;70090;43.208;27.904;2024-02-21T12:34:10;31.60;;;26.00;;
11522;SDS011;70090;43.208;27.904;2024-02-21T12:36:40;32.40;;;25.63;;
11522;SDS011;70090;43.208;27.904;2024-02-21T12:39:08;33.37;;;27.00;;
11522;SDS011;70090;43.208;27.904;2024-02-21T12:41:35;42.53;;;32.17;;
11522;SDS011;70090;43.208;27.904;2024-02-21T12:44:03;35.20;;;27.67;;
11522;SDS011;70090;43.208;27.904;2024-02-21T12:46:32;38.33;;;27.50;;
11522;SDS011;70090;43.208;27.904;2024-02-21T12:48:59;33.77;;;26.67;;
11522;SDS011;70090;43.208;27.904;2024-02-21T12:51:27;32.67;;;26.83;;
11522;SDS011;70090;43.208;27.904;2024-02-21T12:53:55;31.73;;;25.63;;
11522;SDS011;70090;43.208;27.904;2024-02-21T12:56:22;34.03;;;25.70;;
11522;SDS011;70090;43.208;27.904;2024-02-21T12:58:49;36.27;;;26.17;;
11522;SDS011;70090;43.208;27.904;2024-02-21T13:01:17;33.23;;;25.27;;
11522;SDS011;70090;43.208;27.904;2024-02-21T13:03:44;33.13;;;26.40;;
11522;SDS011;70090;43.208;27.904;2024-02-21T13:06:11;32.60;;;25.50;;
11522;SDS011;70090;43.208;27.904;2024-02-21T13:08:40;31.80;;;25.20;;
11522;SDS011;70090;43.208;27.904;2024-02-21T13:11:07;28.87;;;23.37;;
11522;SDS011;70090;43.208;27.904;2024-02-21T13:13:34;28.93;;;22.90;;
11522;SDS011;70090;43.208;27.904;2024-02-21T13:16:01;28.37;;;21.47;;
11522;SDS011;70090;43.208;27.904;2024-02-21T13:18:28;26.53;;;21.00;;
11522;SDS011;70090;43.208;27.904;2024-02-21T13:20:56;30.17;;;21.90;;
11522;SDS011;70090;43.208;27.904;2024-02-21T13:23:23;29.07;;;21.67;;
11522;SDS011;70090;43.208;27.904;2024-02-21T13:25:51;27.87;;;21.33;;
11522;SDS011;70090;43.208;27.904;2024-02-21T13:28:18;28.60;;;22.70;;
11522;SDS011;70090;43.208;27.904;2024-02-21T13:30:45;28.70;;;22.40;;
11522;SDS011;70090;43.208;27.904;2024-02-21T13:33:12;30.50;;;23.37;;
11522;SDS011;70090;43.208;27.904;2024-02-21T13:35:39;31.17;;;24.40;;
11522;SDS011;70090;43.208;27.904;2024-02-21T13:38:07;29.93;;;22.87;;
11522;SDS011;70090;43.208;27.904;2024-02-21T13:40:35;31.37;;;24.00;;
11522;SDS011;70090;43.208;27.904;2024-02-21T13:43:03;31.63;;;24.20;;
11522;SDS011;70090;43.208;27.904;2024-02-21T13:45:30;33.33;;;26.07;;
11522;SDS011;70090;43.208;27.904;2024-02-21T13:47:58;34.37;;;27.30;;
11522;SDS011;70090;43.208;27.904;2024-02-21T13:50:29;30.13;;;23.57;;
11522;SDS011;70090;43.208;27.904;2024-02-21T13:52:57;28.97;;;21.60;;
11522;SDS011;70090;43.208;27.904;2024-02-21T13:55:24;27.10;;;20.43;;
11522;SDS011;70090;43.208;27.904;2024-02-21T13:57:52;30.03;;;20.67;;
11522;SDS011;70090;43.208;27.904;2024-02-21T14:00:20;25.40;;;20.57;;
11522;SDS011;70090;43.208;27.904;2024-02-21T14:02:47;28.67;;;20.80;;
11522;SDS011;70090;43.208;27.904;2024-02-21T14:05:14;28.60;;;21.43;;
11522;SDS011;70090;43.208;27.904;2024-02-21T14:07:41;24.70;;;20.53;;
11522;SDS011;70090;43.208;27.904;2024-02-21T14:10:08;26.93;;;21.13;;
11522;SDS011;70090;43.208;27.904;2024-02-21T14:12:36;26.97;;;20.60;;